sensor_id;sensor_type;location;lat;lon;timestamp;P1;durP1;ratioP1;P2;durP2;ratioP2
62861;SDS011;48953;53.110;5.592;2024-01-30T00:01:53;49.55;;;28.50;;
62861;SDS011;48953;53.110;5.592;2024-01-30T00:04:19;50.42;;;28.75;;
62861;SDS011;48953;53.110;5.592;2024-01-30T00:06:45;49.38;;;28.10;;
62861;SDS011;48953;53.110;5.592;2024-01-30T00:09:11;51.10;;;28.52;;
62861;SDS011;48953;53.110;5.592;2024-01-30T00:11:37;55.78;;;29.60;;
62861;SDS011;48953;53.110;5.592;2024-01-30T00:14:04;53.95;;;30.65;;
62861;SDS011;48953;53.110;5.592;2024-01-30T00:16:30;51.50;;;29.88;;
62861;SDS011;48953;53.110;5.592;2024-01-30T00:18:56;50.30;;;29.85;;
62861;SDS011;48953;53.110;5.592;2024-01-30T00:21:22;56.80;;;31.38;;
62861;SDS011;48953;53.110;5.592;2024-01-30T00:23:49;57.33;;;31.60;;
62861;SDS011;48953;53.110;5.592;2024-01-30T00:26:15;59.00;;;30.25;;
62861;SDS011;48953;53.110;5.592;2024-01-30T00:28:41;55.38;;;31.05;;
62861;SDS011;48953;53.110;5.592;2024-01-30T00:31:07;59.63;;;31.83;;
62861;SDS011;48953;53.110;5.592;2024-01-30T00:33:37;62.03;;;33.10;;
62861;SDS011;48953;53.110;5.592;2024-01-30T00:36:04;60.95;;;31.77;;
62861;SDS011;48953;53.110;5.592;2024-01-30T00:38:31;56.78;;;32.28;;
62861;SDS011;48953;53.110;5.592;2024-01-30T00:40:57;64.13;;;31.95;;
62861;SDS011;48953;53.110;5.592;2024-01-30T00:43:23;63.47;;;32.10;;
62861;SDS011;48953;53.110;5.592;2024-01-30T00:45:52;59.70;;;32.30;;
62861;SDS011;48953;53.110;5.592;2024-01-30T00:48:19;62.67;;;32.17;;
62861;SDS011;48953;53.110;5.592;2024-01-30T00:50:45;67.13;;;34.35;;
62861;SDS011;48953;53.110;5.592;2024-01-30T00:53:11;65.35;;;31.27;;
62861;SDS011;48953;53.110;5.592;2024-01-30T00:55:37;74.03;;;32.95;;
62861;SDS011;48953;53.110;5.592;2024-01-30T00:58:03;72.25;;;34.13;;
62861;SDS011;48953;53.110;5.592;2024-01-30T01:00:29;75.85;;;35.40;;
62861;SDS011;48953;53.110;5.592;2024-01-30T01:02:57;70.43;;;34.70;;
62861;SDS011;48953;53.110;5.592;2024-01-30T01:05:23;76.55;;;36.08;;
62861;SDS011;48953;53.110;5.592;2024-01-30T01:07:48;84.55;;;39.50;;
62861;SDS011;48953;53.110;5.592;2024-01-30T01:10:15;78.88;;;37.50;;
62861;SDS011;48953;53.110;5.592;2024-01-30T01:12:41;82.68;;;39.05;;
62861;SDS011;48953;53.110;5.592;2024-01-30T01:15:07;88.35;;;40.95;;
62861;SDS011;48953;53.110;5.592;2024-01-30T01:17:35;84.80;;;39.75;;
62861;SDS011;48953;53.110;5.592;2024-01-30T01:20:01;88.22;;;41.22;;
62861;SDS011;48953;53.110;5.592;2024-01-30T01:22:27;88.03;;;40.28;;
62861;SDS011;48953;53.110;5.592;2024-01-30T01:24:53;92.32;;;41.33;;
62861;SDS011;48953;53.110;5.592;2024-01-30T01:27:19;88.53;;;40.75;;
62861;SDS011;48953;53.110;5.592;2024-01-30T01:29:46;94.47;;;41.30;;
62861;SDS011;48953;53.110;5.592;2024-01-30T01:32:12;85.90;;;39.47;;
62861;SDS011;48953;53.110;5.592;2024-01-30T01:34:38;89.07;;;39.63;;
62861;SDS011;48953;53.110;5.592;2024-01-30T01:37:04;88.80;;;39.25;;
62861;SDS011;48953;53.110;5.592;2024-01-30T01:39:30;91.75;;;39.70;;
62861;SDS011;48953;53.110;5.592;2024-01-30T01:41:56;92.10;;;38.85;;
62861;SDS011;48953;53.110;5.592;2024-01-30T01:44:22;88.05;;;36.70;;
62861;SDS011;48953;53.110;5.592;2024-01-30T01:46:48;87.43;;;37.97;;
62861;SDS011;48953;53.110;5.592;2024-01-30T01:49:14;80.82;;;36.13;;
62861;SDS011;48953;53.110;5.592;2024-01-30T01:51:40;79.95;;;36.53;;
62861;SDS011;48953;53.110;5.592;2024-01-30T01:54:07;82.22;;;37.30;;
62861;SDS011;48953;53.110;5.592;2024-01-30T01:56:34;81.28;;;36.78;;
62861;SDS011;48953;53.110;5.592;2024-01-30T01:59:04;78.55;;;36.47;;
62861;SDS011;48953;53.110;5.592;2024-01-30T02:01:31;78.25;;;37.20;;
62861;SDS011;48953;53.110;5.592;2024-01-30T02:03:58;78.30;;;37.13;;
62861;SDS011;48953;53.110;5.592;2024-01-30T02:06:24;74.90;;;35.08;;
62861;SDS011;48953;53.110;5.592;2024-01-30T02:08:50;72.20;;;34.58;;
62861;SDS011;48953;53.110;5.592;2024-01-30T02:11:16;72.93;;;35.05;;
62861;SDS011;48953;53.110;5.592;2024-01-30T02:13:43;77.22;;;35.17;;
62861;SDS011;48953;53.110;5.592;2024-01-30T02:16:09;72.47;;;34.45;;
62861;SDS011;48953;53.110;5.592;2024-01-30T02:18:35;71.10;;;34.13;;
62861;SDS011;48953;53.110;5.592;2024-01-30T02:21:06;73.90;;;35.67;;
62861;SDS011;48953;53.110;5.592;2024-01-30T02:23:32;72.22;;;34.22;;
62861;SDS011;48953;53.110;5.592;2024-01-30T02:25:59;75.82;;;34.88;;
62861;SDS011;48953;53.110;5.592;2024-01-30T02:28:25;74.30;;;34.28;;
62861;SDS011;48953;53.110;5.592;2024-01-30T02:30:52;66.55;;;34.05;;
62861;SDS011;48953;53.110;5.592;2024-01-30T02:33:18;75.13;;;35.70;;
62861;SDS011;48953;53.110;5.592;2024-01-30T02:35:44;64.50;;;33.83;;
62861;SDS011;48953;53.110;5.592;2024-01-30T02:38:10;63.33;;;32.13;;
62861;SDS011;48953;53.110;5.592;2024-01-30T02:40:36;67.47;;;32.85;;
62861;SDS011;48953;53.110;5.592;2024-01-30T02:43:02;66.13;;;32.45;;
62861;SDS011;48953;53.110;5.592;2024-01-30T02:45:29;61.05;;;32.00;;
62861;SDS011;48953;53.110;5.592;2024-01-30T02:47:55;61.22;;;31.35;;
62861;SDS011;48953;53.110;5.592;2024-01-30T02:50:21;60.17;;;32.25;;
62861;SDS011;48953;53.110;5.592;2024-01-30T02:52:47;58.97;;;31.75;;
62861;SDS011;48953;53.110;5.592;2024-01-30T02:55:13;60.97;;;30.30;;
62861;SDS011;48953;53.110;5.592;2024-01-30T02:57:39;52.92;;;28.80;;
62861;SDS011;48953;53.110;5.592;2024-01-30T03:00:05;52.00;;;28.92;;
62861;SDS011;48953;53.110;5.592;2024-01-30T03:02:34;54.10;;;28.52;;
62861;SDS011;48953;53.110;5.592;2024-01-30T03:05:00;52.45;;;26.77;;
62861;SDS011;48953;53.110;5.592;2024-01-30T03:07:26;53.63;;;26.88;;
62861;SDS011;48953;53.110;5.592;2024-01-30T03:09:52;50.47;;;27.70;;
62861;SDS011;48953;53.110;5.592;2024-01-30T03:12:20;50.85;;;26.63;;
62861;SDS011;48953;53.110;5.592;2024-01-30T03:14:46;54.83;;;27.85;;
62861;SDS011;48953;53.110;5.592;2024-01-30T03:17:12;51.97;;;27.00;;
62861;SDS011;48953;53.110;5.592;2024-01-30T03:19:38;48.65;;;26.80;;
62861;SDS011;48953;53.110;5.592;2024-01-30T03:22:04;51.80;;;27.80;;
62861;SDS011;48953;53.110;5.592;2024-01-30T03:24:30;55.25;;;27.33;;
62861;SDS011;48953;53.110;5.592;2024-01-30T03:26:56;51.33;;;26.88;;
62861;SDS011;48953;53.110;5.592;2024-01-30T03:29:22;52.17;;;28.45;;
62861;SDS011;48953;53.110;5.592;2024-01-30T03:31:48;52.38;;;27.67;;
62861;SDS011;48953;53.110;5.592;2024-01-30T03:34:14;46.92;;;24.13;;
62861;SDS011;48953;53.110;5.592;2024-01-30T03:36:40;52.47;;;27.00;;
62861;SDS011;48953;53.110;5.592;2024-01-30T03:39:06;54.20;;;26.35;;
62861;SDS011;48953;53.110;5.592;2024-01-30T03:41:32;51.30;;;26.77;;
62861;SDS011;48953;53.110;5.592;2024-01-30T03:43:58;51.30;;;26.35;;
62861;SDS011;48953;53.110;5.592;2024-01-30T03:46:24;51.30;;;27.10;;
62861;SDS011;48953;53.110;5.592;2024-01-30T03:48:50;54.33;;;26.58;;
62861;SDS011;48953;53.110;5.592;2024-01-30T03:51:16;50.55;;;25.88;;
62861;SDS011;48953;53.110;5.592;2024-01-30T03:53:42;52.10;;;26.55;;
62861;SDS011;48953;53.110;5.592;2024-01-30T03:56:09;53.08;;;26.42;;
62861;SDS011;48953;53.110;5.592;2024-01-30T03:58:35;55.85;;;27.80;;
62861;SDS011;48953;53.110;5.592;2024-01-30T04:01:01;51.90;;;26.55;;
62861;SDS011;48953;53.110;5.592;2024-01-30T04:03:27;50.70;;;26.02;;
62861;SDS011;48953;53.110;5.592;2024-01-30T04:05:53;53.92;;;26.20;;
62861;SDS011;48953;53.110;5.592;2024-01-30T04:08:19;52.08;;;27.00;;
62861;SDS011;48953;53.110;5.592;2024-01-30T04:10:46;48.50;;;26.52;;
62861;SDS011;48953;53.110;5.592;2024-01-30T04:13:12;53.83;;;26.00;;
62861;SDS011;48953;53.110;5.592;2024-01-30T04:15:38;46.08;;;25.35;;
62861;SDS011;48953;53.110;5.592;2024-01-30T04:18:05;51.00;;;26.70;;
62861;SDS011;48953;53.110;5.592;2024-01-30T04:20:31;53.30;;;27.27;;
62861;SDS011;48953;53.110;5.592;2024-01-30T04:22:57;50.83;;;25.83;;
62861;SDS011;48953;53.110;5.592;2024-01-30T04:25:23;50.53;;;24.23;;
62861;SDS011;48953;53.110;5.592;2024-01-30T04:27:49;50.90;;;27.83;;
62861;SDS011;48953;53.110;5.592;2024-01-30T04:30:15;49.20;;;25.88;;
62861;SDS011;48953;53.110;5.592;2024-01-30T04:32:41;48.08;;;25.73;;
62861;SDS011;48953;53.110;5.592;2024-01-30T04:35:07;59.40;;;29.63;;
62861;SDS011;48953;53.110;5.592;2024-01-30T04:37:33;48.47;;;25.73;;
62861;SDS011;48953;53.110;5.592;2024-01-30T04:39:59;47.40;;;25.70;;
62861;SDS011;48953;53.110;5.592;2024-01-30T04:42:25;44.33;;;25.05;;
62861;SDS011;48953;53.110;5.592;2024-01-30T04:44:51;46.85;;;24.83;;
62861;SDS011;48953;53.110;5.592;2024-01-30T04:47:17;43.83;;;24.67;;
62861;SDS011;48953;53.110;5.592;2024-01-30T04:49:43;45.42;;;23.95;;
62861;SDS011;48953;53.110;5.592;2024-01-30T04:52:09;48.00;;;24.38;;
62861;SDS011;48953;53.110;5.592;2024-01-30T04:54:35;44.97;;;24.58;;
62861;SDS011;48953;53.110;5.592;2024-01-30T04:57:01;39.78;;;22.48;;
62861;SDS011;48953;53.110;5.592;2024-01-30T04:59:28;46.00;;;24.17;;
62861;SDS011;48953;53.110;5.592;2024-01-30T05:01:54;43.35;;;22.73;;
62861;SDS011;48953;53.110;5.592;2024-01-30T05:04:20;42.22;;;22.45;;
62861;SDS011;48953;53.110;5.592;2024-01-30T05:06:47;39.00;;;21.85;;
62861;SDS011;48953;53.110;5.592;2024-01-30T05:09:13;44.42;;;23.05;;
62861;SDS011;48953;53.110;5.592;2024-01-30T05:11:39;40.03;;;21.52;;
62861;SDS011;48953;53.110;5.592;2024-01-30T05:14:05;40.17;;;22.80;;
62861;SDS011;48953;53.110;5.592;2024-01-30T05:16:31;41.85;;;21.80;;
62861;SDS011;48953;53.110;5.592;2024-01-30T05:18:58;43.65;;;23.15;;
62861;SDS011;48953;53.110;5.592;2024-01-30T05:21:24;42.25;;;22.17;;
62861;SDS011;48953;53.110;5.592;2024-01-30T05:23:50;41.75;;;22.50;;
62861;SDS011;48953;53.110;5.592;2024-01-30T05:26:16;40.13;;;21.58;;
62861;SDS011;48953;53.110;5.592;2024-01-30T05:28:43;39.22;;;22.08;;
62861;SDS011;48953;53.110;5.592;2024-01-30T05:31:13;45.78;;;21.88;;
62861;SDS011;48953;53.110;5.592;2024-01-30T05:33:39;36.65;;;21.77;;
62861;SDS011;48953;53.110;5.592;2024-01-30T05:36:06;44.30;;;22.23;;
62861;SDS011;48953;53.110;5.592;2024-01-30T05:38:32;41.13;;;20.80;;
62861;SDS011;48953;53.110;5.592;2024-01-30T05:40:58;38.70;;;20.85;;
62861;SDS011;48953;53.110;5.592;2024-01-30T05:43:24;37.53;;;21.13;;
62861;SDS011;48953;53.110;5.592;2024-01-30T05:45:50;37.92;;;21.27;;
62861;SDS011;48953;53.110;5.592;2024-01-30T05:48:18;36.05;;;20.58;;
62861;SDS011;48953;53.110;5.592;2024-01-30T05:50:44;34.55;;;20.45;;
62861;SDS011;48953;53.110;5.592;2024-01-30T05:53:10;36.42;;;21.02;;
62861;SDS011;48953;53.110;5.592;2024-01-30T05:55:36;38.00;;;21.08;;
62861;SDS011;48953;53.110;5.592;2024-01-30T05:58:02;33.78;;;20.08;;
62861;SDS011;48953;53.110;5.592;2024-01-30T06:00:29;32.50;;;19.90;;
62861;SDS011;48953;53.110;5.592;2024-01-30T06:02:55;35.00;;;18.55;;
62861;SDS011;48953;53.110;5.592;2024-01-30T06:05:21;32.42;;;19.45;;
62861;SDS011;48953;53.110;5.592;2024-01-30T06:07:47;35.28;;;19.67;;
62861;SDS011;48953;53.110;5.592;2024-01-30T06:10:12;32.92;;;18.92;;
62861;SDS011;48953;53.110;5.592;2024-01-30T06:12:39;30.13;;;18.83;;
62861;SDS011;48953;53.110;5.592;2024-01-30T06:15:05;36.50;;;19.75;;
62861;SDS011;48953;53.110;5.592;2024-01-30T06:17:32;29.90;;;18.60;;
62861;SDS011;48953;53.110;5.592;2024-01-30T06:19:58;30.40;;;19.88;;
62861;SDS011;48953;53.110;5.592;2024-01-30T06:22:24;30.23;;;18.50;;
62861;SDS011;48953;53.110;5.592;2024-01-30T06:24:50;29.48;;;17.83;;
62861;SDS011;48953;53.110;5.592;2024-01-30T06:27:16;28.33;;;17.85;;
62861;SDS011;48953;53.110;5.592;2024-01-30T06:29:43;31.40;;;17.48;;
62861;SDS011;48953;53.110;5.592;2024-01-30T06:32:09;31.77;;;18.00;;
62861;SDS011;48953;53.110;5.592;2024-01-30T06:34:35;25.98;;;17.10;;
62861;SDS011;48953;53.110;5.592;2024-01-30T06:37:01;28.30;;;17.75;;
62861;SDS011;48953;53.110;5.592;2024-01-30T06:39:27;27.88;;;17.98;;
62861;SDS011;48953;53.110;5.592;2024-01-30T06:41:53;29.67;;;17.13;;
62861;SDS011;48953;53.110;5.592;2024-01-30T06:44:19;28.65;;;17.15;;
62861;SDS011;48953;53.110;5.592;2024-01-30T06:46:45;31.92;;;18.25;;
62861;SDS011;48953;53.110;5.592;2024-01-30T06:49:11;28.75;;;18.20;;
62861;SDS011;48953;53.110;5.592;2024-01-30T06:51:37;28.17;;;16.90;;
62861;SDS011;48953;53.110;5.592;2024-01-30T06:54:03;25.50;;;16.98;;
62861;SDS011;48953;53.110;5.592;2024-01-30T06:56:29;31.05;;;18.50;;
62861;SDS011;48953;53.110;5.592;2024-01-30T06:58:55;29.92;;;16.67;;
62861;SDS011;48953;53.110;5.592;2024-01-30T07:01:27;25.67;;;17.00;;
62861;SDS011;48953;53.110;5.592;2024-01-30T07:03:54;28.52;;;17.23;;
62861;SDS011;48953;53.110;5.592;2024-01-30T07:06:20;29.50;;;16.95;;
62861;SDS011;48953;53.110;5.592;2024-01-30T07:08:47;29.15;;;17.33;;
62861;SDS011;48953;53.110;5.592;2024-01-30T07:11:18;31.42;;;17.00;;
62861;SDS011;48953;53.110;5.592;2024-01-30T07:13:45;26.45;;;17.25;;
62861;SDS011;48953;53.110;5.592;2024-01-30T07:16:11;25.17;;;16.50;;
62861;SDS011;48953;53.110;5.592;2024-01-30T07:18:37;26.88;;;16.10;;
62861;SDS011;48953;53.110;5.592;2024-01-30T07:21:03;28.50;;;16.83;;
62861;SDS011;48953;53.110;5.592;2024-01-30T07:23:29;27.33;;;17.42;;
62861;SDS011;48953;53.110;5.592;2024-01-30T07:25:55;24.35;;;15.70;;
62861;SDS011;48953;53.110;5.592;2024-01-30T07:28:21;27.63;;;15.63;;
62861;SDS011;48953;53.110;5.592;2024-01-30T07:30:47;26.80;;;15.40;;
62861;SDS011;48953;53.110;5.592;2024-01-30T07:33:14;25.48;;;15.65;;
62861;SDS011;48953;53.110;5.592;2024-01-30T07:35:40;27.63;;;15.95;;
62861;SDS011;48953;53.110;5.592;2024-01-30T07:38:06;26.45;;;15.98;;
62861;SDS011;48953;53.110;5.592;2024-01-30T07:40:32;23.70;;;15.32;;
62861;SDS011;48953;53.110;5.592;2024-01-30T07:42:58;22.17;;;15.38;;
62861;SDS011;48953;53.110;5.592;2024-01-30T07:45:25;25.02;;;16.25;;
62861;SDS011;48953;53.110;5.592;2024-01-30T07:47:52;24.52;;;15.52;;
62861;SDS011;48953;53.110;5.592;2024-01-30T07:50:18;25.13;;;15.88;;
62861;SDS011;48953;53.110;5.592;2024-01-30T07:52:44;26.00;;;16.08;;
62861;SDS011;48953;53.110;5.592;2024-01-30T07:55:10;24.48;;;15.75;;
62861;SDS011;48953;53.110;5.592;2024-01-30T07:57:40;23.63;;;15.88;;
62861;SDS011;48953;53.110;5.592;2024-01-30T08:02:33;26.08;;;15.30;;
62861;SDS011;48953;53.110;5.592;2024-01-30T08:04:59;23.15;;;14.90;;
62861;SDS011;48953;53.110;5.592;2024-01-30T08:07:25;24.95;;;15.45;;
62861;SDS011;48953;53.110;5.592;2024-01-30T08:09:54;23.83;;;15.63;;
62861;SDS011;48953;53.110;5.592;2024-01-30T08:12:20;24.88;;;16.08;;
62861;SDS011;48953;53.110;5.592;2024-01-30T08:14:46;22.90;;;14.23;;
62861;SDS011;48953;53.110;5.592;2024-01-30T08:17:12;24.10;;;15.43;;
62861;SDS011;48953;53.110;5.592;2024-01-30T08:19:38;24.60;;;14.30;;
62861;SDS011;48953;53.110;5.592;2024-01-30T08:22:04;27.83;;;15.27;;
62861;SDS011;48953;53.110;5.592;2024-01-30T08:24:30;24.42;;;14.18;;
62861;SDS011;48953;53.110;5.592;2024-01-30T08:26:56;23.95;;;15.55;;
62861;SDS011;48953;53.110;5.592;2024-01-30T08:29:23;25.23;;;15.23;;
62861;SDS011;48953;53.110;5.592;2024-01-30T08:31:49;26.30;;;14.90;;
62861;SDS011;48953;53.110;5.592;2024-01-30T08:34:15;24.48;;;15.30;;
62861;SDS011;48953;53.110;5.592;2024-01-30T08:36:41;27.13;;;14.85;;
62861;SDS011;48953;53.110;5.592;2024-01-30T08:39:07;21.88;;;14.35;;
62861;SDS011;48953;53.110;5.592;2024-01-30T08:41:33;22.65;;;14.23;;
62861;SDS011;48953;53.110;5.592;2024-01-30T08:43:59;25.40;;;15.25;;
62861;SDS011;48953;53.110;5.592;2024-01-30T08:46:25;27.80;;;14.77;;
62861;SDS011;48953;53.110;5.592;2024-01-30T08:48:51;22.83;;;14.40;;
62861;SDS011;48953;53.110;5.592;2024-01-30T08:51:18;23.00;;;13.75;;
62861;SDS011;48953;53.110;5.592;2024-01-30T08:53:44;25.40;;;14.15;;
62861;SDS011;48953;53.110;5.592;2024-01-30T08:56:10;26.83;;;14.73;;
62861;SDS011;48953;53.110;5.592;2024-01-30T08:58:36;23.50;;;13.93;;
62861;SDS011;48953;53.110;5.592;2024-01-30T09:01:02;29.48;;;14.50;;
62861;SDS011;48953;53.110;5.592;2024-01-30T09:03:30;27.88;;;14.13;;
62861;SDS011;48953;53.110;5.592;2024-01-30T09:05:56;23.33;;;14.07;;
62861;SDS011;48953;53.110;5.592;2024-01-30T09:08:22;23.15;;;14.07;;
62861;SDS011;48953;53.110;5.592;2024-01-30T09:10:48;27.05;;;14.05;;
62861;SDS011;48953;53.110;5.592;2024-01-30T09:13:15;24.88;;;13.75;;
62861;SDS011;48953;53.110;5.592;2024-01-30T09:15:41;21.17;;;13.52;;
62861;SDS011;48953;53.110;5.592;2024-01-30T09:18:07;21.88;;;13.35;;
62861;SDS011;48953;53.110;5.592;2024-01-30T09:20:33;23.25;;;13.95;;
62861;SDS011;48953;53.110;5.592;2024-01-30T09:22:59;21.23;;;13.65;;
62861;SDS011;48953;53.110;5.592;2024-01-30T09:25:25;20.88;;;13.50;;
62861;SDS011;48953;53.110;5.592;2024-01-30T09:27:51;25.25;;;14.52;;
62861;SDS011;48953;53.110;5.592;2024-01-30T09:30:17;22.00;;;13.73;;
62861;SDS011;48953;53.110;5.592;2024-01-30T09:32:43;21.95;;;13.40;;
62861;SDS011;48953;53.110;5.592;2024-01-30T09:35:10;18.90;;;12.95;;
62861;SDS011;48953;53.110;5.592;2024-01-30T09:37:36;24.50;;;13.15;;
62861;SDS011;48953;53.110;5.592;2024-01-30T09:40:02;22.70;;;12.90;;
62861;SDS011;48953;53.110;5.592;2024-01-30T09:42:35;23.40;;;12.00;;
62861;SDS011;48953;53.110;5.592;2024-01-30T09:45:02;19.35;;;10.50;;
62861;SDS011;48953;53.110;5.592;2024-01-30T09:47:31;16.17;;;9.30;;
62861;SDS011;48953;53.110;5.592;2024-01-30T09:49:57;17.27;;;8.60;;
62861;SDS011;48953;53.110;5.592;2024-01-30T09:52:24;15.52;;;8.15;;
62861;SDS011;48953;53.110;5.592;2024-01-30T09:54:51;17.85;;;7.65;;
62861;SDS011;48953;53.110;5.592;2024-01-30T09:57:17;14.73;;;7.35;;
62861;SDS011;48953;53.110;5.592;2024-01-30T09:59:43;14.68;;;7.22;;
62861;SDS011;48953;53.110;5.592;2024-01-30T10:02:09;13.57;;;6.57;;
62861;SDS011;48953;53.110;5.592;2024-01-30T10:04:36;13.70;;;5.72;;
62861;SDS011;48953;53.110;5.592;2024-01-30T10:07:02;16.33;;;6.18;;
62861;SDS011;48953;53.110;5.592;2024-01-30T10:09:29;21.98;;;5.80;;
62861;SDS011;48953;53.110;5.592;2024-01-30T10:11:57;17.20;;;5.65;;
62861;SDS011;48953;53.110;5.592;2024-01-30T10:14:23;13.98;;;5.88;;
62861;SDS011;48953;53.110;5.592;2024-01-30T10:16:50;14.77;;;5.22;;
62861;SDS011;48953;53.110;5.592;2024-01-30T10:19:16;13.40;;;5.45;;
62861;SDS011;48953;53.110;5.592;2024-01-30T10:21:42;15.38;;;5.38;;
62861;SDS011;48953;53.110;5.592;2024-01-30T10:24:08;13.00;;;5.32;;
62861;SDS011;48953;53.110;5.592;2024-01-30T10:26:38;14.60;;;6.22;;
62861;SDS011;48953;53.110;5.592;2024-01-30T10:29:04;20.92;;;5.78;;
62861;SDS011;48953;53.110;5.592;2024-01-30T10:31:30;11.00;;;4.45;;
62861;SDS011;48953;53.110;5.592;2024-01-30T10:33:56;14.95;;;4.50;;
62861;SDS011;48953;53.110;5.592;2024-01-30T10:36:24;12.57;;;4.30;;
62861;SDS011;48953;53.110;5.592;2024-01-30T10:38:53;11.38;;;4.05;;
62861;SDS011;48953;53.110;5.592;2024-01-30T10:41:23;11.40;;;4.10;;
62861;SDS011;48953;53.110;5.592;2024-01-30T10:43:58;10.48;;;3.25;;
62861;SDS011;48953;53.110;5.592;2024-01-30T10:46:30;9.45;;;2.72;;
62861;SDS011;48953;53.110;5.592;2024-01-30T10:48:58;6.00;;;2.42;;
62861;SDS011;48953;53.110;5.592;2024-01-30T10:51:28;7.13;;;2.10;;
62861;SDS011;48953;53.110;5.592;2024-01-30T10:53:55;7.35;;;2.17;;
62861;SDS011;48953;53.110;5.592;2024-01-30T10:56:21;5.00;;;2.08;;
62861;SDS011;48953;53.110;5.592;2024-01-30T10:58:49;6.60;;;1.73;;
62861;SDS011;48953;53.110;5.592;2024-01-30T11:01:16;7.13;;;2.00;;
62861;SDS011;48953;53.110;5.592;2024-01-30T11:03:42;7.75;;;1.65;;
62861;SDS011;48953;53.110;5.592;2024-01-30T11:06:10;6.22;;;1.80;;
62861;SDS011;48953;53.110;5.592;2024-01-30T11:08:43;6.95;;;1.60;;
62861;SDS011;48953;53.110;5.592;2024-01-30T11:11:09;8.13;;;1.70;;
62861;SDS011;48953;53.110;5.592;2024-01-30T11:13:35;7.65;;;1.65;;
62861;SDS011;48953;53.110;5.592;2024-01-30T11:16:02;8.75;;;1.75;;
62861;SDS011;48953;53.110;5.592;2024-01-30T11:18:32;7.80;;;1.27;;
62861;SDS011;48953;53.110;5.592;2024-01-30T11:20:58;3.88;;;1.20;;
62861;SDS011;48953;53.110;5.592;2024-01-30T11:23:26;9.20;;;1.80;;
62861;SDS011;48953;53.110;5.592;2024-01-30T11:25:53;5.63;;;2.65;;
62861;SDS011;48953;53.110;5.592;2024-01-30T11:28:20;10.73;;;1.63;;
62861;SDS011;48953;53.110;5.592;2024-01-30T11:30:47;7.75;;;1.90;;
62861;SDS011;48953;53.110;5.592;2024-01-30T11:33:15;5.82;;;1.25;;
62861;SDS011;48953;53.110;5.592;2024-01-30T11:35:42;6.88;;;2.22;;
62861;SDS011;48953;53.110;5.592;2024-01-30T11:38:09;8.43;;;2.10;;
62861;SDS011;48953;53.110;5.592;2024-01-30T11:40:36;4.78;;;2.10;;
62861;SDS011;48953;53.110;5.592;2024-01-30T11:43:03;9.90;;;1.85;;
62861;SDS011;48953;53.110;5.592;2024-01-30T11:45:29;7.10;;;1.80;;
62861;SDS011;48953;53.110;5.592;2024-01-30T11:47:56;9.00;;;1.75;;
62861;SDS011;48953;53.110;5.592;2024-01-30T11:50:22;8.52;;;1.60;;
62861;SDS011;48953;53.110;5.592;2024-01-30T11:52:48;6.45;;;1.50;;
62861;SDS011;48953;53.110;5.592;2024-01-30T11:55:14;6.25;;;1.83;;
62861;SDS011;48953;53.110;5.592;2024-01-30T11:57:41;8.55;;;1.45;;
62861;SDS011;48953;53.110;5.592;2024-01-30T12:00:13;4.80;;;1.27;;
62861;SDS011;48953;53.110;5.592;2024-01-30T12:02:40;5.82;;;1.10;;
62861;SDS011;48953;53.110;5.592;2024-01-30T12:05:06;7.15;;;1.20;;
62861;SDS011;48953;53.110;5.592;2024-01-30T12:07:33;4.90;;;1.23;;
62861;SDS011;48953;53.110;5.592;2024-01-30T12:09:59;6.93;;;1.30;;
62861;SDS011;48953;53.110;5.592;2024-01-30T12:12:26;5.45;;;1.00;;
62861;SDS011;48953;53.110;5.592;2024-01-30T12:14:52;7.90;;;1.30;;
62861;SDS011;48953;53.110;5.592;2024-01-30T12:17:28;7.57;;;2.05;;
62861;SDS011;48953;53.110;5.592;2024-01-30T12:22:36;4.97;;;1.25;;
62861;SDS011;48953;53.110;5.592;2024-01-30T12:27:29;4.32;;;1.20;;
62861;SDS011;48953;53.110;5.592;2024-01-30T12:29:56;5.25;;;1.20;;
62861;SDS011;48953;53.110;5.592;2024-01-30T12:32:23;3.03;;;1.23;;
62861;SDS011;48953;53.110;5.592;2024-01-30T12:34:49;4.25;;;1.23;;
62861;SDS011;48953;53.110;5.592;2024-01-30T12:37:15;4.53;;;1.40;;
62861;SDS011;48953;53.110;5.592;2024-01-30T12:39:48;5.70;;;1.30;;
62861;SDS011;48953;53.110;5.592;2024-01-30T12:42:14;5.47;;;1.00;;
62861;SDS011;48953;53.110;5.592;2024-01-30T12:44:40;4.82;;;0.95;;
62861;SDS011;48953;53.110;5.592;2024-01-30T12:47:08;3.85;;;1.42;;
62861;SDS011;48953;53.110;5.592;2024-01-30T12:49:35;4.20;;;1.10;;
62861;SDS011;48953;53.110;5.592;2024-01-30T12:52:01;3.10;;;1.00;;
62861;SDS011;48953;53.110;5.592;2024-01-30T12:54:27;3.30;;;1.08;;
62861;SDS011;48953;53.110;5.592;2024-01-30T12:56:53;4.95;;;1.42;;
62861;SDS011;48953;53.110;5.592;2024-01-30T12:59:21;2.88;;;1.55;;
62861;SDS011;48953;53.110;5.592;2024-01-30T13:01:47;5.35;;;1.15;;
62861;SDS011;48953;53.110;5.592;2024-01-30T13:04:13;5.97;;;1.17;;
62861;SDS011;48953;53.110;5.592;2024-01-30T13:06:40;4.57;;;1.08;;
62861;SDS011;48953;53.110;5.592;2024-01-30T13:09:06;4.32;;;1.02;;
62861;SDS011;48953;53.110;5.592;2024-01-30T13:11:32;2.50;;;1.10;;
62861;SDS011;48953;53.110;5.592;2024-01-30T13:13:59;3.40;;;1.15;;
62861;SDS011;48953;53.110;5.592;2024-01-30T13:16:25;7.78;;;1.38;;
62861;SDS011;48953;53.110;5.592;2024-01-30T13:18:51;2.75;;;1.10;;
62861;SDS011;48953;53.110;5.592;2024-01-30T13:21:17;5.80;;;1.38;;
62861;SDS011;48953;53.110;5.592;2024-01-30T13:23:43;5.57;;;1.63;;
62861;SDS011;48953;53.110;5.592;2024-01-30T13:26:09;5.75;;;1.33;;
62861;SDS011;48953;53.110;5.592;2024-01-30T13:28:35;4.45;;;1.48;;
62861;SDS011;48953;53.110;5.592;2024-01-30T13:31:01;4.57;;;1.20;;
62861;SDS011;48953;53.110;5.592;2024-01-30T13:33:27;8.35;;;2.13;;
62861;SDS011;48953;53.110;5.592;2024-01-30T13:35:53;6.43;;;1.73;;
62861;SDS011;48953;53.110;5.592;2024-01-30T13:38:19;5.78;;;1.63;;
62861;SDS011;48953;53.110;5.592;2024-01-30T13:40:45;5.60;;;2.35;;
62861;SDS011;48953;53.110;5.592;2024-01-30T13:43:11;4.75;;;1.73;;
62861;SDS011;48953;53.110;5.592;2024-01-30T13:45:37;5.95;;;1.60;;
62861;SDS011;48953;53.110;5.592;2024-01-30T13:48:03;5.35;;;2.08;;
62861;SDS011;48953;53.110;5.592;2024-01-30T13:50:29;6.15;;;1.65;;
62861;SDS011;48953;53.110;5.592;2024-01-30T13:52:55;8.05;;;1.80;;
62861;SDS011;48953;53.110;5.592;2024-01-30T13:55:22;6.28;;;1.60;;
62861;SDS011;48953;53.110;5.592;2024-01-30T13:57:48;6.95;;;1.58;;
62861;SDS011;48953;53.110;5.592;2024-01-30T14:00:14;4.55;;;1.60;;
62861;SDS011;48953;53.110;5.592;2024-01-30T14:02:41;8.30;;;1.50;;
62861;SDS011;48953;53.110;5.592;2024-01-30T14:05:07;4.43;;;1.80;;
62861;SDS011;48953;53.110;5.592;2024-01-30T14:07:35;4.75;;;1.52;;
62861;SDS011;48953;53.110;5.592;2024-01-30T14:10:01;5.97;;;1.77;;
62861;SDS011;48953;53.110;5.592;2024-01-30T14:12:27;4.18;;;1.40;;
62861;SDS011;48953;53.110;5.592;2024-01-30T14:14:55;7.20;;;1.55;;
62861;SDS011;48953;53.110;5.592;2024-01-30T14:17:21;5.25;;;1.65;;
62861;SDS011;48953;53.110;5.592;2024-01-30T14:19:47;5.82;;;1.60;;
62861;SDS011;48953;53.110;5.592;2024-01-30T14:22:13;3.28;;;1.52;;
62861;SDS011;48953;53.110;5.592;2024-01-30T14:24:39;5.07;;;1.40;;
62861;SDS011;48953;53.110;5.592;2024-01-30T14:27:05;7.72;;;1.70;;
62861;SDS011;48953;53.110;5.592;2024-01-30T14:29:32;2.20;;;1.13;;
62861;SDS011;48953;53.110;5.592;2024-01-30T14:31:59;2.45;;;1.50;;